Terminal Aerodrome Forecast
Issued by NWS Nashville, TN

Home | Current Version | Previous Version | Text Only | Print | Product List | Glossary On
Versions: 1 2 3 4 5 6 7 8 9 10 11 12 13 14 15 16 17 18 19 20 21 22 23 24 25 26 27 28 29 30
118
FTUS44 KOHX 171238 AAA
TAFCSV
TAF AMD
KCSV 171238Z 1713/1812 00000KT P6SM SCT015 SCT150
      TEMPO 1713/1715 BKN015
     FM171500 25010KT P6SM BKN040
     FM172300 25010KT P6SM VCTS BKN045CB
     FM180300 25006KT P6SM BKN100
     FM180700 26004KT 3SM BR BKN010=

USA.gov is the U.S. government's official web portal to all federal, state and local government web resources and services.